Time;durP1;ratioP1;P1;durP2;ratioP2;P2;SDS_P1;SDS_P2;PMS_P1;PMS_P2;Temp;Humidity;BMP_temperature;BMP_pressure;BME280_temperature;BME280_humidity;BME280_pressure;Samples;Min_cycle;Max_cycle;Signal;HPM_P1;HPM_P2
2023/02/05 00:01:52;;;;;;;15.13;8.60;;;8.20;99.90;;;;;;5060606;28;20441;-64
2023/02/05 00:04:18;;;;;;;14.20;8.03;;;8.10;99.90;;;;;;5064412;28;20190;-65
2023/02/05 00:06:44;;;;;;;14.00;8.17;;;8.00;99.90;;;;;;5067513;28;20719;-64
2023/02/05 00:09:10;;;;;;;12.13;7.03;;;8.00;99.90;;;;;;5066803;28;20530;-64
2023/02/05 00:11:36;;;;;;;18.70;8.87;;;7.90;99.90;;;;;;5071382;28;20452;-64
2023/02/05 00:14:01;;;;;;;13.83;8.37;;;8.00;99.90;;;;;;5068795;28;20432;-64
2023/02/05 00:16:27;;;;;;;15.57;9.60;;;7.90;99.90;;;;;;5066285;28;20214;-64
2023/02/05 00:18:53;;;;;;;16.00;8.30;;;7.90;99.90;;;;;;5070916;28;20278;-65
2023/02/05 00:21:20;;;;;;;15.23;8.83;;;7.90;99.90;;;;;;5052348;28;20194;-64
2023/02/05 00:23:46;;;;;;;14.60;8.97;;;7.90;99.90;;;;;;5072360;28;20407;-64
2023/02/05 00:26:13;;;;;;;19.60;8.80;;;7.80;99.90;;;;;;5056655;28;20468;-63
2023/02/05 00:28:39;;;;;;;13.47;8.00;;;7.90;99.90;;;;;;5072678;28;20732;-63
2023/02/05 00:31:18;;;;;;;12.77;8.53;;;7.90;99.90;;;;;;5068628;28;20445;-63
2023/02/05 00:33:45;;;;;;;17.67;9.47;;;7.80;99.90;;;;;;5073326;28;20446;-63
2023/02/05 00:36:12;;;;;;;18.80;8.67;;;7.70;99.90;;;;;;5067915;28;20459;-64
2023/02/05 00:38:37;;;;;;;16.00;8.60;;;7.70;99.90;;;;;;5054043;28;20440;-63
2023/02/05 00:41:03;;;;;;;16.13;9.50;;;7.70;99.90;;;;;;5078312;28;20971;-63
2023/02/05 00:43:29;;;;;;;18.30;9.30;;;7.70;99.90;;;;;;5055898;28;20202;-63
2023/02/05 00:45:55;;;;;;;15.77;9.17;;;7.70;99.90;;;;;;5074054;28;20202;-64
2023/02/05 00:48:21;;;;;;;20.93;9.20;;;7.70;99.90;;;;;;5071542;28;20234;-63
2023/02/05 00:50:51;;;;;;;14.30;8.97;;;7.70;99.90;;;;;;5071784;28;21325;-63
2023/02/05 00:53:17;;;;;;;14.57;8.73;;;7.70;99.90;;;;;;5076693;28;20921;-63
2023/02/05 00:55:43;;;;;;;16.23;8.57;;;7.60;99.90;;;;;;5075190;28;21078;-64
2023/02/05 00:58:09;;;;;;;13.50;8.37;;;7.50;99.90;;;;;;5072853;28;20449;-64
2023/02/05 01:00:34;;;;;;;19.90;10.87;;;7.40;99.90;;;;;;5071047;28;20526;-64
2023/02/05 01:03:00;;;;;;;12.47;9.00;;;7.50;99.90;;;;;;5063422;28;20852;-64
2023/02/05 01:05:26;;;;;;;18.33;9.00;;;7.60;99.90;;;;;;5075941;28;20239;-64
2023/02/05 01:07:52;;;;;;;15.73;9.17;;;7.60;99.90;;;;;;5076398;28;20213;-63
2023/02/05 01:10:18;;;;;;;18.23;10.47;;;7.50;99.90;;;;;;5074161;28;20433;-64
2023/02/05 01:12:44;;;;;;;23.03;10.10;;;7.50;99.90;;;;;;5072014;28;21465;-64
2023/02/05 01:15:12;;;;;;;24.33;10.33;;;7.50;99.90;;;;;;5057104;28;20201;-63
2023/02/05 01:17:37;;;;;;;19.40;9.60;;;7.40;99.90;;;;;;5073845;28;22291;-63
2023/02/05 01:20:04;;;;;;;16.00;9.10;;;7.40;99.90;;;;;;5073733;28;20645;-64
2023/02/05 01:22:30;;;;;;;12.40;8.97;;;7.30;99.90;;;;;;5072500;28;20191;-64
2023/02/05 01:24:56;;;;;;;24.37;10.40;;;7.20;99.90;;;;;;5070378;28;20409;-63
2023/02/05 01:27:23;;;;;;;18.43;10.50;;;7.30;99.90;;;;;;5073766;28;20507;-63
2023/02/05 01:29:49;;;;;;;26.23;9.97;;;7.30;99.90;;;;;;5073581;28;20214;-64
2023/02/05 01:32:15;;;;;;;17.30;10.50;;;7.30;99.90;;;;;;5075007;28;20428;-63
2023/02/05 01:34:40;;;;;;;19.63;9.60;;;7.30;99.90;;;;;;5072818;28;20479;-63
2023/02/05 01:37:06;;;;;;;18.37;10.20;;;7.30;99.90;;;;;;5071745;28;20261;-63
2023/02/05 01:39:31;;;;;;;17.00;10.17;;;7.30;99.90;;;;;;5057554;28;20217;-63
2023/02/05 01:41:57;;;;;;;14.57;9.70;;;7.20;99.90;;;;;;5074124;28;20186;-64
2023/02/05 01:44:23;;;;;;;17.37;9.17;;;7.20;99.90;;;;;;5072590;28;20686;-63
2023/02/05 01:46:54;;;;;;;14.90;10.27;;;7.20;99.90;;;;;;5071382;28;20209;-63
2023/02/05 01:49:33;;;;;;;22.23;10.40;;;7.30;99.90;;;;;;5070609;28;20472;-63
2023/02/05 01:52:06;;;;;;;12.60;8.27;;;7.20;99.90;;;;;;5073019;28;20471;-63
2023/02/05 01:54:35;;;;;;;15.23;8.70;;;7.20;99.90;;;;;;5071294;28;20527;-63
2023/02/05 01:57:06;;;;;;;14.47;8.23;;;7.30;99.90;;;;;;5071768;28;20488;-63
2023/02/05 01:59:36;;;;;;;19.20;9.57;;;7.30;99.90;;;;;;5068530;28;20955;-64
2023/02/05 02:02:06;;;;;;;16.67;8.80;;;7.20;99.90;;;;;;5042976;28;20453;-64
2023/02/05 02:04:37;;;;;;;12.90;7.30;;;7.30;99.90;;;;;;5070843;28;20468;-63
2023/02/05 02:07:04;;;;;;;14.80;7.60;;;7.20;99.90;;;;;;5071788;28;20480;-63
2023/02/05 02:09:29;;;;;;;11.60;7.50;;;7.10;99.90;;;;;;5051803;28;20520;-63
2023/02/05 02:11:57;;;;;;;12.30;7.53;;;7.20;99.90;;;;;;5070372;28;20452;-63
2023/02/05 02:14:25;;;;;;;15.87;8.50;;;7.20;99.90;;;;;;5071526;28;20190;-63
2023/02/05 02:16:51;;;;;;;17.67;8.87;;;7.10;99.90;;;;;;5070905;28;20459;-63
2023/02/05 02:20:07;;;;;;;20.50;7.17;;;7.10;99.90;;;;;;5069779;28;20581;-63
2023/02/05 02:22:39;;;;;;;12.30;7.13;;;7.20;99.90;;;;;;5069300;28;20773;-63
2023/02/05 02:25:31;;;;;;;15.70;7.10;;;7.20;99.90;;;;;;5070485;28;20444;-63
2023/02/05 02:28:03;;;;;;;12.80;6.73;;;7.10;99.90;;;;;;5064830;28;20546;-63
2023/02/05 02:30:52;;;;;;;12.50;7.10;;;7.10;99.90;;;;;;5068844;28;20455;-64
2023/02/05 02:33:36;;;;;;;22.17;7.50;;;7.20;99.90;;;;;;5062729;28;20472;-63
2023/02/05 02:36:08;;;;;;;11.30;6.97;;;7.30;99.90;;;;;;5072538;28;20476;-63
2023/02/05 02:38:40;;;;;;;19.70;7.37;;;7.30;99.90;;;;;;5068393;28;20522;-63
2023/02/05 02:41:30;;;;;;;18.00;8.17;;;7.20;99.90;;;;;;5070375;28;20485;-63
2023/02/05 02:43:57;;;;;;;15.40;7.90;;;7.10;99.90;;;;;;5072147;28;20428;-63
2023/02/05 02:46:43;;;;;;;14.97;8.77;;;7.30;99.90;;;;;;5069823;28;21015;-63
2023/02/05 02:49:19;;;;;;;11.93;8.47;;;7.30;99.90;;;;;;5070049;28;21165;-63
2023/02/05 02:51:48;;;;;;;15.50;8.47;;;7.40;99.90;;;;;;5067540;28;20436;-63
2023/02/05 02:54:17;;;;;;;11.20;8.10;;;7.40;99.90;;;;;;5068244;28;20493;-63
2023/02/05 02:56:43;;;;;;;14.30;7.90;;;7.40;99.90;;;;;;5071358;28;20456;-63
2023/02/05 02:59:24;;;;;;;13.80;7.80;;;7.30;99.90;;;;;;5053264;28;20440;-63
2023/02/05 03:02:01;;;;;;;14.40;7.90;;;7.30;99.90;;;;;;5062193;28;20447;-63
2023/02/05 03:04:39;;;;;;;13.80;7.17;;;7.20;99.90;;;;;;5068021;28;20489;-63
2023/02/05 03:07:16;;;;;;;16.20;8.80;;;7.20;99.90;;;;;;5073358;28;20464;-62
2023/02/05 03:09:55;;;;;;;18.60;9.80;;;7.20;99.90;;;;;;5072550;28;20540;-63
2023/02/05 03:12:21;;;;;;;11.87;7.50;;;7.20;99.90;;;;;;5071499;28;20852;-63
2023/02/05 03:14:47;;;;;;;18.63;8.90;;;7.30;99.90;;;;;;5068717;28;20503;-63
2023/02/05 03:17:18;;;;;;;17.50;9.83;;;7.20;99.90;;;;;;5073363;28;20190;-63
2023/02/05 03:19:58;;;;;;;15.90;9.50;;;7.10;99.90;;;;;;5070093;28;20202;-63
2023/02/05 03:22:24;;;;;;;12.43;8.43;;;7.10;99.90;;;;;;5069526;28;20531;-63
2023/02/05 03:24:50;;;;;;;17.10;9.20;;;7.20;99.90;;;;;;5074185;28;20507;-63
2023/02/05 03:27:16;;;;;;;15.90;9.40;;;7.20;99.90;;;;;;5070935;28;20460;-63
2023/02/05 03:29:45;;;;;;;19.07;10.00;;;7.20;99.90;;;;;;5067078;28;20477;-63
2023/02/05 03:32:19;;;;;;;15.77;9.90;;;7.10;99.90;;;;;;5070825;28;20782;-63
2023/02/05 03:35:06;;;;;;;17.90;9.53;;;7.10;99.90;;;;;;5073331;28;20848;-62
2023/02/05 03:38:14;;;;;;;19.10;9.10;;;7.20;99.90;;;;;;5052958;28;20499;-63
2023/02/05 03:40:48;;;;;;;23.43;10.53;;;7.20;99.90;;;;;;5068016;28;20445;-63
2023/02/05 03:43:46;;;;;;;14.60;10.20;;;7.20;99.90;;;;;;5070941;28;20816;-63
2023/02/05 03:46:37;;;;;;;18.37;10.00;;;7.10;99.90;;;;;;5071445;28;20548;-63
2023/02/05 03:49:14;;;;;;;17.80;9.23;;;7.20;99.90;;;;;;5067178;28;20829;-63
2023/02/05 03:51:50;;;;;;;13.17;9.50;;;7.10;99.90;;;;;;5066979;28;20468;-63
2023/02/05 03:54:35;;;;;;;18.53;9.70;;;7.00;99.90;;;;;;5069536;28;20435;-63
2023/02/05 03:57:21;;;;;;;18.13;9.73;;;6.90;99.90;;;;;;5066860;28;20453;-63
2023/02/05 03:59:49;;;;;;;15.27;8.70;;;7.00;99.90;;;;;;5064250;28;20424;-63
2023/02/05 04:02:15;;;;;;;13.03;8.40;;;6.90;99.90;;;;;;5060527;28;20482;-62
2023/02/05 04:04:41;;;;;;;21.07;9.73;;;6.90;99.90;;;;;;5067325;28;20436;-63
2023/02/05 04:07:07;;;;;;;16.30;9.33;;;6.90;99.90;;;;;;5071974;28;20470;-62
2023/02/05 04:09:32;;;;;;;13.07;8.20;;;6.90;99.90;;;;;;5072059;28;20189;-62
2023/02/05 04:11:58;;;;;;;18.23;8.80;;;7.00;99.90;;;;;;5073445;28;20175;-63
2023/02/05 04:14:23;;;;;;;19.07;8.93;;;6.90;99.90;;;;;;5075486;28;20179;-63
2023/02/05 04:16:49;;;;;;;17.60;8.57;;;6.90;99.90;;;;;;5055322;28;20215;-63
2023/02/05 04:19:14;;;;;;;17.70;8.67;;;6.90;99.90;;;;;;5054729;28;20183;-63
2023/02/05 04:21:40;;;;;;;14.90;8.67;;;7.00;99.90;;;;;;5075711;28;20183;-63
2023/02/05 04:24:06;;;;;;;14.30;7.73;;;7.00;99.90;;;;;;5078654;28;20236;-63
2023/02/05 04:26:31;;;;;;;12.23;8.73;;;7.10;99.90;;;;;;5074520;28;20296;-63
2023/02/05 04:28:57;;;;;;;11.80;8.20;;;7.10;99.90;;;;;;5074147;28;20555;-63
2023/02/05 04:31:23;;;;;;;14.27;7.43;;;7.10;99.90;;;;;;5074112;28;20198;-63
2023/02/05 04:33:48;;;;;;;17.10;6.47;;;7.10;99.90;;;;;;5071775;28;20266;-64
2023/02/05 04:36:14;;;;;;;13.97;6.80;;;7.10;99.90;;;;;;5074799;28;20190;-63
2023/02/05 04:38:39;;;;;;;13.97;7.20;;;7.10;99.90;;;;;;5055965;28;20916;-63
2023/02/05 04:41:05;;;;;;;13.13;6.97;;;7.10;99.90;;;;;;5076302;28;20210;-64
2023/02/05 04:43:30;;;;;;;13.80;7.77;;;7.10;99.90;;;;;;5077349;28;20244;-63
2023/02/05 04:45:56;;;;;;;9.30;6.73;;;7.10;99.90;;;;;;5070766;28;20213;-64
2023/02/05 04:48:22;;;;;;;16.30;6.97;;;7.10;99.90;;;;;;5054015;28;20305;-64
2023/02/05 04:50:47;;;;;;;12.47;6.60;;;7.10;99.90;;;;;;5072398;28;20285;-64
2023/02/05 04:53:13;;;;;;;11.33;5.93;;;7.20;99.90;;;;;;5076793;28;20164;-64
2023/02/05 04:55:39;;;;;;;10.80;6.67;;;7.10;99.90;;;;;;5071604;28;20186;-64
2023/02/05 04:58:04;;;;;;;11.57;5.83;;;7.10;99.90;;;;;;5074871;28;21001;-64
2023/02/05 05:00:30;;;;;;;13.17;7.97;;;7.10;99.90;;;;;;5072672;28;20175;-67
2023/02/05 05:02:56;;;;;;;10.43;6.47;;;7.00;99.90;;;;;;5065595;28;20188;-64
2023/02/05 05:05:22;;;;;;;11.83;7.10;;;7.00;99.90;;;;;;5068045;28;20198;-64
2023/02/05 05:07:47;;;;;;;13.00;6.77;;;7.00;99.90;;;;;;5069680;28;22192;-63
2023/02/05 05:10:13;;;;;;;18.13;7.80;;;7.00;99.90;;;;;;5070016;28;20466;-63
2023/02/05 05:12:39;;;;;;;12.57;6.63;;;6.90;99.90;;;;;;5074389;28;20535;-63
2023/02/05 05:15:05;;;;;;;12.57;7.60;;;6.90;99.90;;;;;;5075512;28;20470;-64
2023/02/05 05:17:32;;;;;;;12.50;7.50;;;6.90;99.90;;;;;;5071877;28;20259;-64
2023/02/05 05:19:58;;;;;;;12.17;7.73;;;6.90;99.90;;;;;;5072762;28;20965;-63
2023/02/05 05:22:23;;;;;;;8.33;6.17;;;6.90;99.90;;;;;;5075422;28;20522;-63
2023/02/05 05:24:49;;;;;;;9.73;7.00;;;6.90;99.90;;;;;;5073861;28;20278;-63
2023/02/05 05:27:15;;;;;;;13.40;7.27;;;6.90;99.90;;;;;;5071450;28;20214;-63
2023/02/05 05:29:41;;;;;;;10.20;7.00;;;6.90;99.90;;;;;;5067624;28;20531;-64
2023/02/05 05:32:06;;;;;;;13.20;7.60;;;6.90;99.90;;;;;;5074434;28;20489;-63
2023/02/05 05:34:32;;;;;;;17.87;7.73;;;6.90;99.90;;;;;;5055267;28;20178;-63
2023/02/05 05:36:58;;;;;;;11.20;7.00;;;6.80;99.90;;;;;;5076013;28;20195;-64
2023/02/05 05:45:11;;;;;;;11.30;7.27;;;6.80;99.90;;;;;;4993552;28;20493;-63
2023/02/05 05:47:37;;;;;;;16.97;7.97;;;6.70;99.90;;;;;;5040217;28;20940;-63
2023/02/05 05:50:03;;;;;;;11.13;7.17;;;6.70;99.90;;;;;;5074065;28;20194;-63
2023/02/05 05:52:28;;;;;;;13.33;7.43;;;6.60;99.90;;;;;;5057281;28;20182;-63
2023/02/05 05:54:54;;;;;;;9.93;6.20;;;6.70;99.90;;;;;;5073588;28;20480;-63
2023/02/05 05:57:20;;;;;;;10.17;6.60;;;6.70;99.90;;;;;;5075545;28;20304;-63
2023/02/05 05:59:45;;;;;;;15.63;8.10;;;6.90;99.90;;;;;;5076918;28;20622;-63
2023/02/05 06:02:11;;;;;;;10.23;7.00;;;6.80;99.90;;;;;;5059515;28;20251;-63
2023/02/05 06:04:36;;;;;;;10.33;7.10;;;6.80;99.90;;;;;;5072193;28;20186;-63
2023/02/05 06:07:02;;;;;;;15.93;7.87;;;6.60;99.90;;;;;;5052428;28;20810;-64
2023/02/05 06:09:27;;;;;;;16.07;9.07;;;6.60;99.90;;;;;;5072898;28;20189;-63
2023/02/05 06:11:53;;;;;;;15.57;8.80;;;6.60;99.90;;;;;;5068460;28;20174;-64
2023/02/05 06:14:19;;;;;;;11.60;8.27;;;6.70;99.90;;;;;;5070522;28;20772;-63
2023/02/05 06:16:44;;;;;;;14.40;9.37;;;6.60;99.90;;;;;;5073706;28;20481;-63
2023/02/05 06:19:10;;;;;;;16.83;8.87;;;6.60;99.90;;;;;;5074785;28;20186;-63
2023/02/05 06:21:35;;;;;;;12.97;8.10;;;6.70;99.90;;;;;;5070789;28;20222;-63
2023/02/05 06:24:01;;;;;;;16.50;8.70;;;6.70;99.90;;;;;;5072542;28;20608;-64
2023/02/05 06:26:26;;;;;;;21.70;9.67;;;6.70;99.90;;;;;;5072046;28;20214;-63
2023/02/05 06:28:52;;;;;;;14.17;8.97;;;6.60;99.90;;;;;;5076048;28;20868;-64
2023/02/05 06:31:18;;;;;;;17.73;9.40;;;6.70;99.90;;;;;;5072930;28;20656;-63
2023/02/05 06:33:44;;;;;;;18.20;10.13;;;6.60;99.90;;;;;;5058081;28;20613;-64
2023/02/05 06:36:09;;;;;;;19.50;10.07;;;6.50;99.90;;;;;;5073769;28;20456;-64
2023/02/05 06:38:35;;;;;;;14.63;9.93;;;6.50;99.90;;;;;;5074703;28;20186;-64
2023/02/05 06:41:01;;;;;;;21.63;10.83;;;6.50;99.90;;;;;;5070461;28;20600;-64
2023/02/05 06:43:26;;;;;;;15.23;10.60;;;6.60;99.90;;;;;;5075430;28;20264;-63
2023/02/05 06:45:52;;;;;;;15.43;10.43;;;6.70;99.90;;;;;;5070390;28;20206;-63
2023/02/05 06:48:17;;;;;;;17.83;10.20;;;6.70;99.90;;;;;;5071739;28;20214;-63
2023/02/05 06:50:43;;;;;;;21.60;10.83;;;6.60;99.90;;;;;;5054436;28;20599;-63
2023/02/05 06:53:08;;;;;;;17.37;10.37;;;6.50;99.90;;;;;;5076530;28;20273;-64
2023/02/05 06:55:36;;;;;;;19.07;10.23;;;6.50;99.90;;;;;;5073652;28;20255;-64
2023/02/05 06:58:01;;;;;;;16.73;11.27;;;6.60;99.90;;;;;;5053003;28;20218;-64
2023/02/05 07:00:27;;;;;;;19.10;11.03;;;6.50;99.90;;;;;;5068525;28;20566;-63
2023/02/05 07:02:53;;;;;;;19.63;11.50;;;6.50;99.90;;;;;;5062683;28;20218;-64
2023/02/05 07:05:19;;;;;;;18.50;11.40;;;6.40;99.90;;;;;;5067072;28;20914;-64
2023/02/05 07:07:45;;;;;;;23.83;10.60;;;6.40;99.90;;;;;;5053460;28;20540;-64
2023/02/05 07:10:10;;;;;;;19.60;11.67;;;6.50;99.90;;;;;;5069056;28;20823;-64
2023/02/05 07:12:36;;;;;;;20.87;10.30;;;6.50;99.90;;;;;;5073170;28;20198;-64
2023/02/05 07:15:02;;;;;;;21.50;11.70;;;6.30;99.90;;;;;;5064046;28;20193;-64
2023/02/05 07:17:27;;;;;;;18.33;10.93;;;6.30;99.90;;;;;;5064532;28;20692;-63
2023/02/05 07:19:53;;;;;;;22.07;11.33;;;6.30;99.90;;;;;;5068038;28;20503;-63
2023/02/05 07:22:18;;;;;;;22.30;11.60;;;6.30;99.90;;;;;;5054297;28;20203;-63
2023/02/05 07:24:44;;;;;;;15.37;10.37;;;6.30;99.90;;;;;;5068643;28;20752;-63
2023/02/05 07:27:10;;;;;;;22.83;10.43;;;6.20;99.90;;;;;;5071083;28;20328;-64
2023/02/05 07:29:35;;;;;;;21.40;11.30;;;6.20;99.90;;;;;;5071401;28;20330;-64
2023/02/05 07:32:01;;;;;;;17.17;11.10;;;6.20;99.90;;;;;;5066854;28;20191;-65
2023/02/05 07:34:26;;;;;;;22.80;9.67;;;6.20;99.90;;;;;;5072093;28;20623;-64
2023/02/05 07:36:52;;;;;;;17.50;8.57;;;6.20;99.90;;;;;;5068918;28;20272;-65
2023/02/05 07:39:18;;;;;;;14.57;9.20;;;6.30;99.90;;;;;;5067972;28;20182;-65
2023/02/05 07:41:44;;;;;;;17.07;10.73;;;6.20;99.90;;;;;;5070386;28;20193;-64
2023/02/05 07:44:09;;;;;;;17.40;8.93;;;6.20;99.90;;;;;;5071262;28;20776;-65
2023/02/05 07:46:35;;;;;;;15.83;10.93;;;6.20;99.90;;;;;;5067258;28;20203;-64
2023/02/05 07:49:01;;;;;;;18.67;9.10;;;6.30;99.90;;;;;;5073644;28;20218;-64
2023/02/05 07:51:27;;;;;;;14.70;8.60;;;6.20;99.90;;;;;;5068328;28;20434;-64
2023/02/05 07:53:53;;;;;;;16.67;9.00;;;6.40;99.90;;;;;;5069731;28;20882;-64
2023/02/05 07:56:20;;;;;;;18.63;10.10;;;6.30;99.90;;;;;;5050475;28;20202;-64
2023/02/05 07:58:46;;;;;;;14.47;8.63;;;6.30;99.90;;;;;;5070209;28;20185;-64
2023/02/05 08:01:12;;;;;;;17.50;8.00;;;6.40;99.90;;;;;;5064009;28;20433;-64
2023/02/05 08:03:38;;;;;;;19.80;8.20;;;6.40;99.90;;;;;;5065117;28;20467;-64
2023/02/05 08:06:08;;;;;;;15.60;7.40;;;6.40;99.90;;;;;;5051638;28;20692;-64
2023/02/05 08:08:34;;;;;;;12.33;7.67;;;6.40;99.90;;;;;;5067731;28;20199;-66
2023/02/05 08:11:03;;;;;;;16.70;8.17;;;6.40;99.90;;;;;;5069804;28;20413;-64
2023/02/05 08:13:29;;;;;;;17.13;7.23;;;6.50;99.90;;;;;;5065364;28;20269;-63
2023/02/05 08:15:55;;;;;;;10.97;7.63;;;6.40;99.90;;;;;;5068314;28;20537;-64
2023/02/05 08:18:21;;;;;;;9.97;7.70;;;6.40;99.90;;;;;;5070849;28;20194;-64
2023/02/05 08:20:46;;;;;;;18.77;8.50;;;6.40;99.90;;;;;;5066660;28;20187;-64
2023/02/05 08:23:12;;;;;;;15.23;7.77;;;6.40;99.90;;;;;;5070982;28;20425;-66
2023/02/05 08:25:38;;;;;;;13.70;7.70;;;6.40;99.90;;;;;;5071441;28;20222;-66
2023/02/05 08:28:04;;;;;;;11.73;7.23;;;6.40;99.90;;;;;;5068258;28;20213;-65
2023/02/05 08:30:29;;;;;;;12.20;6.60;;;6.30;99.90;;;;;;5069357;28;20428;-65
2023/02/05 08:32:55;;;;;;;15.13;8.07;;;6.20;99.90;;;;;;5064633;28;20541;-65
2023/02/05 08:35:21;;;;;;;14.43;7.30;;;6.30;99.90;;;;;;5069346;28;20204;-66
2023/02/05 08:37:46;;;;;;;11.10;6.97;;;6.30;99.90;;;;;;5063498;28;20305;-65
2023/02/05 08:40:12;;;;;;;12.30;7.37;;;6.40;99.90;;;;;;5070432;28;20660;-64
2023/02/05 08:42:38;;;;;;;16.90;7.20;;;6.40;99.90;;;;;;5065865;28;20973;-64
2023/02/05 08:45:07;;;;;;;12.17;6.70;;;6.40;99.90;;;;;;5067187;28;20195;-64
2023/02/05 08:47:34;;;;;;;14.90;6.87;;;6.30;99.90;;;;;;5060230;28;20231;-64
2023/02/05 08:50:00;;;;;;;13.50;6.80;;;6.40;99.90;;;;;;5065477;28;20765;-64
2023/02/05 08:52:25;;;;;;;10.67;6.67;;;6.50;99.90;;;;;;5064955;28;20452;-64
2023/02/05 08:54:51;;;;;;;12.70;6.60;;;6.50;99.90;;;;;;5066251;28;20178;-64
2023/02/05 08:57:16;;;;;;;12.53;6.70;;;6.60;99.90;;;;;;5053150;28;20206;-65
2023/02/05 08:59:42;;;;;;;15.23;7.50;;;6.60;99.90;;;;;;5069170;28;20198;-64
2023/02/05 09:02:13;;;;;;;12.03;6.80;;;6.50;99.90;;;;;;5042061;28;20187;-64
2023/02/05 09:04:38;;;;;;;11.67;6.60;;;6.50;99.90;;;;;;5070837;28;20630;-66
2023/02/05 09:07:04;;;;;;;10.87;6.13;;;6.60;99.90;;;;;;5053327;28;20530;-64
2023/02/05 09:09:31;;;;;;;18.20;7.60;;;6.60;99.90;;;;;;5066319;28;20191;-65
2023/02/05 09:11:57;;;;;;;12.73;6.90;;;6.60;99.90;;;;;;5069431;28;20191;-65
2023/02/05 09:14:23;;;;;;;11.23;5.90;;;6.70;99.90;;;;;;5070361;28;20514;-64
2023/02/05 09:16:48;;;;;;;11.53;6.50;;;6.70;99.90;;;;;;5068370;28;20449;-65
2023/02/05 09:19:14;;;;;;;11.67;6.13;;;6.60;99.90;;;;;;5063523;28;20244;-64
2023/02/05 09:21:40;;;;;;;16.70;6.50;;;6.60;99.90;;;;;;5066659;28;20232;-64
2023/02/05 09:24:06;;;;;;;12.37;6.70;;;6.60;99.90;;;;;;5070585;28;20194;-65
2023/02/05 09:26:31;;;;;;;12.40;6.20;;;6.50;99.90;;;;;;5069616;28;20959;-65
2023/02/05 09:28:57;;;;;;;14.60;7.00;;;6.50;99.90;;;;;;5069519;28;20210;-65
2023/02/05 09:31:23;;;;;;;15.00;7.20;;;6.60;99.90;;;;;;5052977;28;21689;-65
2023/02/05 09:33:48;;;;;;;17.43;6.37;;;6.60;99.90;;;;;;5069975;28;20796;-65
2023/02/05 09:36:17;;;;;;;10.83;6.20;;;6.70;99.90;;;;;;5069010;28;20574;-65
2023/02/05 09:38:44;;;;;;;9.60;5.80;;;6.60;99.90;;;;;;5072813;28;20640;-65
2023/02/05 09:41:22;;;;;;;19.40;6.90;;;6.70;99.90;;;;;;5071927;28;20509;-64
2023/02/05 09:44:20;;;;;;;13.70;7.20;;;6.80;99.90;;;;;;5066737;28;20433;-65
2023/02/05 09:47:01;;;;;;;12.20;6.97;;;6.90;99.90;;;;;;5043468;28;20896;-65
2023/02/05 09:49:54;;;;;;;15.17;6.97;;;6.80;99.90;;;;;;5071604;28;20886;-65
2023/02/05 09:52:21;;;;;;;15.83;7.33;;;6.80;99.90;;;;;;5070979;28;20433;-65
2023/02/05 09:54:52;;;;;;;17.10;7.87;;;6.80;99.90;;;;;;5069636;28;20476;-65
2023/02/05 09:57:30;;;;;;;14.23;7.00;;;6.90;99.90;;;;;;5070774;28;20452;-65
2023/02/05 09:59:57;;;;;;;18.23;6.87;;;6.90;99.90;;;;;;5070184;28;20936;-65
2023/02/05 10:02:26;;;;;;;10.10;6.47;;;6.80;99.90;;;;;;5056147;28;20494;-65
2023/02/05 10:04:53;;;;;;;11.60;7.20;;;6.80;99.90;;;;;;5063800;28;20882;-65
2023/02/05 10:07:39;;;;;;;14.70;6.63;;;6.90;99.90;;;;;;5069021;28;21083;-65
2023/02/05 10:10:27;;;;;;;13.43;7.77;;;6.90;99.90;;;;;;5069269;28;20920;-65
2023/02/05 10:13:09;;;;;;;8.37;5.60;;;6.90;99.90;;;;;;5048465;28;20962;-64
2023/02/05 10:15:49;;;;;;;11.07;6.10;;;6.90;99.90;;;;;;5070272;28;20621;-64
2023/02/05 10:18:46;;;;;;;16.40;6.80;;;7.00;99.90;;;;;;5072497;28;20489;-64
2023/02/05 10:21:30;;;;;;;20.20;6.87;;;6.90;99.90;;;;;;5067913;28;20956;-64
2023/02/05 10:24:20;;;;;;;14.17;7.03;;;7.00;99.90;;;;;;5063736;28;20945;-64
2023/02/05 10:26:51;;;;;;;14.87;7.27;;;6.90;99.90;;;;;;5068658;28;20444;-64
2023/02/05 10:29:23;;;;;;;9.20;5.67;;;6.80;99.90;;;;;;5069739;28;20484;-64
2023/02/05 10:32:16;;;;;;;12.50;6.77;;;6.80;99.90;;;;;;5069090;28;20444;-64
2023/02/05 10:34:52;;;;;;;9.70;6.63;;;6.80;99.90;;;;;;5067453;28;20449;-64
2023/02/05 10:37:23;;;;;;;9.27;6.30;;;6.80;99.90;;;;;;5062833;28;20882;-64
2023/02/05 10:39:48;;;;;;;9.90;5.40;;;6.80;99.90;;;;;;5067671;28;20463;-63
2023/02/05 10:42:34;;;;;;;11.57;7.03;;;6.80;99.90;;;;;;5066216;28;20651;-64
2023/02/05 10:45:13;;;;;;;11.20;6.10;;;6.80;99.90;;;;;;5067927;28;20210;-64
2023/02/05 10:47:52;;;;;;;11.90;6.67;;;6.70;99.90;;;;;;5064914;28;21072;-64
2023/02/05 10:50:39;;;;;;;10.57;6.43;;;6.70;99.90;;;;;;5052222;28;20480;-64
2023/02/05 10:53:05;;;;;;;17.83;6.37;;;6.70;99.90;;;;;;5067374;28;20428;-63
2023/02/05 10:55:31;;;;;;;11.80;6.30;;;6.70;99.90;;;;;;5075197;28;20432;-64
2023/02/05 10:57:56;;;;;;;10.37;5.97;;;6.60;99.90;;;;;;5065228;28;20178;-64
2023/02/05 11:00:22;;;;;;;11.53;6.63;;;6.60;99.90;;;;;;5068801;28;20274;-64
2023/02/05 11:02:53;;;;;;;11.90;6.33;;;6.70;99.90;;;;;;5064020;28;20191;-64
2023/02/05 11:05:36;;;;;;;10.77;6.83;;;6.60;99.90;;;;;;5065761;28;20282;-64
2023/02/05 11:08:02;;;;;;;13.83;7.47;;;6.60;99.90;;;;;;5066123;28;20473;-64
2023/02/05 11:10:31;;;;;;;15.07;7.73;;;6.60;99.90;;;;;;5071426;28;21058;-64
2023/02/05 11:13:17;;;;;;;15.53;7.87;;;6.60;99.90;;;;;;5066411;28;20500;-63
2023/02/05 11:16:04;;;;;;;13.00;7.97;;;6.70;99.90;;;;;;5069831;28;20545;-64
2023/02/05 11:18:57;;;;;;;15.07;8.27;;;6.60;99.90;;;;;;5066234;28;20583;-63
2023/02/05 11:21:22;;;;;;;16.70;8.33;;;6.60;99.90;;;;;;5052528;28;20463;-63
2023/02/05 11:23:56;;;;;;;16.73;8.47;;;6.60;99.90;;;;;;5066026;28;20461;-62
2023/02/05 11:26:24;;;;;;;13.73;8.43;;;6.60;99.90;;;;;;5066410;28;21326;-61
2023/02/05 11:28:50;;;;;;;15.10;8.83;;;6.60;99.90;;;;;;5065935;28;20463;-62
2023/02/05 11:31:33;;;;;;;17.53;8.80;;;6.70;99.90;;;;;;5068576;28;20922;-62
2023/02/05 11:34:12;;;;;;;16.77;9.47;;;6.80;99.90;;;;;;5066947;28;21137;-64
2023/02/05 11:36:51;;;;;;;17.80;10.90;;;6.80;99.90;;;;;;5072018;28;20452;-66
2023/02/05 11:39:38;;;;;;;24.97;12.60;;;6.80;99.90;;;;;;5072504;28;20425;-66
2023/02/05 11:42:20;;;;;;;20.53;11.83;;;6.90;99.90;;;;;;5070087;28;20439;-65
2023/02/05 11:44:50;;;;;;;22.07;11.40;;;6.90;99.90;;;;;;5067260;28;21038;-65
2023/02/05 11:47:38;;;;;;;17.10;10.40;;;6.90;99.90;;;;;;5067806;28;20456;-65
2023/02/05 11:50:17;;;;;;;20.67;11.20;;;6.80;99.90;;;;;;5065972;28;20416;-65
2023/02/05 11:52:43;;;;;;;19.60;11.53;;;6.90;99.90;;;;;;5048570;28;20447;-66
2023/02/05 11:55:30;;;;;;;15.90;9.43;;;7.00;99.90;;;;;;5068367;28;21026;-66
2023/02/05 11:58:04;;;;;;;16.90;9.93;;;7.00;99.90;;;;;;5066941;28;20496;-66
2023/02/05 12:00:30;;;;;;;17.87;10.10;;;6.80;99.90;;;;;;5071748;28;20420;-65
2023/02/05 12:03:15;;;;;;;14.13;8.43;;;6.90;99.90;;;;;;5059879;28;20427;-65
2023/02/05 12:05:47;;;;;;;18.13;10.57;;;6.80;99.90;;;;;;5066432;28;20452;-65
2023/02/05 12:08:43;;;;;;;21.33;10.20;;;6.90;99.90;;;;;;5067165;28;20468;-65
2023/02/05 12:11:59;;;;;;;14.73;9.80;;;7.00;99.90;;;;;;5050937;28;20452;-66
2023/02/05 12:14:27;;;;;;;19.30;10.80;;;6.90;99.90;;;;;;5070338;28;20448;-66
2023/02/05 12:17:24;;;;;;;21.43;11.60;;;7.00;99.90;;;;;;5048979;28;20467;-65
2023/02/05 12:20:17;;;;;;;21.90;10.53;;;7.10;99.90;;;;;;5065754;28;20448;-64
2023/02/05 12:23:00;;;;;;;15.93;11.10;;;7.10;99.90;;;;;;5074643;28;20420;-67
2023/02/05 12:26:04;;;;;;;17.80;10.73;;;6.90;99.90;;;;;;5072875;28;20470;-65
2023/02/05 12:29:04;;;;;;;20.20;12.33;;;7.00;99.90;;;;;;5000226;28;20849;-65
2023/02/05 12:31:58;;;;;;;26.33;12.47;;;7.00;99.90;;;;;;5074009;28;20463;-65
2023/02/05 12:34:57;;;;;;;30.43;12.60;;;7.00;99.90;;;;;;5078310;28;20940;-65
2023/02/05 12:37:34;;;;;;;19.57;11.50;;;6.90;99.90;;;;;;5072899;28;20461;-65
2023/02/05 12:40:21;;;;;;;21.03;12.20;;;7.00;99.90;;;;;;5067863;28;20452;-65
2023/02/05 12:43:08;;;;;;;20.10;11.50;;;7.10;99.90;;;;;;5075744;28;20447;-65
2023/02/05 12:45:50;;;;;;;19.10;13.13;;;7.10;99.90;;;;;;5081675;28;20721;-65
2023/02/05 12:48:48;;;;;;;14.00;10.10;;;7.20;99.90;;;;;;5067709;28;21288;-65
2023/02/05 12:51:50;;;;;;;15.57;11.17;;;7.10;99.90;;;;;;5069274;28;20436;-65
2023/02/05 12:55:02;;;;;;;19.83;12.43;;;7.20;99.90;;;;;;5075145;28;20416;-65
2023/02/05 12:57:59;;;;;;;17.50;10.53;;;7.20;99.90;;;;;;5063359;28;20524;-65
2023/02/05 13:00:31;;;;;;;17.10;11.10;;;7.20;99.90;;;;;;5073575;28;20588;-65
2023/02/05 13:03:26;;;;;;;19.70;10.97;;;7.20;99.90;;;;;;5065110;28;21121;-66
2023/02/05 13:05:55;;;;;;;17.53;10.73;;;7.30;99.90;;;;;;5056093;28;20470;-65
2023/02/05 13:08:46;;;;;;;19.13;11.93;;;7.30;99.90;;;;;;5070425;28;20980;-65
2023/02/05 13:11:21;;;;;;;15.27;11.00;;;7.30;99.90;;;;;;5072115;28;20436;-65
2023/02/05 13:14:14;;;;;;;19.97;12.23;;;7.30;99.90;;;;;;5072984;28;21141;-65